Vines Loop, Louisiana
Current Conditions -  °F | °C
As of 1:56 AM on Saturday 29 Nov 2014 (Local Time) from KAQV Reporting Station
Overcast Overcast  
Wind Chill: 14°   Ceiling: 600
Heat Index: 14°   Visibility: 10mi
Dew Point: 13°   Wind: 7mph
Humidity: 90%   Direction: 190°S
Pressure: 30.11"   Gusts: 16mph
Location:  31.6945°N, 93.716°W
Report Text: KAQV 290756Z AUTO 19006G14KT 10SM OVC006 14/13 A3011 RMK AO2 CIG 005V011 SLP194 T01440128
Loading
Personal Weather Stations






























Interactive Weather Map New forecast layout! Learn more

10-Day Weather Forecast

Advertisements
Track Severe Weather on mobile